Calumet City, Illinois
Current Conditions -  °F | °C
As of 7:45 AM on Friday 24 Oct 2014 (Local Time) from KGYY Reporting Station
Overcast Overcast  
Wind Chill: 54°   Ceiling: 3100
Heat Index: 54°   Visibility: 10mi
Dew Point: 46°   Wind: 6mph
Humidity: 77%   Direction: 230°SW
Pressure: 30.07"   Gusts: NA
Location:  41.62°N, 87.53°W
Report Text: KGYY 241245Z 23005KT 10SM OVC031 12/08 A3007
Loading
Personal Weather Stations






























Interactive Weather Map
Tropical Storm Tracking
New forecast layout! Learn more

10-Day Weather Forecast

Advertisements
Track Severe Weather on mobile